FAWK

Waterkloof Air Force Base Airport

Pretoria, South Africa
TAF FAWK 170300Z 1704/1715 09012KT 9999 BKN015 TX27/1713Z TN16/1704Z BECMG 1706/1708 CAVOK BECMG 1708/1710 27010KT
Issued Valid From Valid To
Jan-17 @ 03:00 UTC
(2 hours ago)
Jan-17 @ 04:00 UTC
(49 minutes ago)
Jan-17 @ 15:00 UTC
(in 10 hours)
Jan-17 @ 04:00 to Jan-17 @ 06:00
TAF FAWK 170300Z 1704/1715 09012KT 9999 BKN015 TX27/1713Z TN16/1704Z
Wind Visibility Clouds
90° at 12 knots 10,000+ meters
  • Broken at 1,500' AGL
Becoming Jan-17 @ 06:00 to Jan-17 @ 08:00
BECMG 1706/1708 CAVOK
Wind Visibility Clouds Conditions
90° at 12 knots 10,000+ meters
  • No significant clouds
Becoming Jan-17 @ 08:00 to Jan-17 @ 15:00
BECMG 1708/1710 27010KT
Wind Visibility Clouds Conditions
270° at 10 knots 10,000+ meters
  • No significant clouds
TAF FAWK 170300Z 1704/1715 09012KT 9999 BKN015 TX27/1713Z TN16/1704Z BECMG 1706/1708 CAVOK BECMG 1708/1710 27010KT
Issued Jan-17 @ 03:00 UTC
(2 hours ago)
Valid From Jan-17 @ 04:00 UTC
(49 minutes ago)
Valid To Jan-17 @ 15:00 UTC
(in 10 hours)
Jan-17 @ 04:00 - Jan-17 @ 06:00
Wind Visibility
90° at 12 knots 10,000+ meters
Clouds
  • Broken at 1,500' AGL
Becoming Jan-17 @ 06:00 - Jan-17 @ 08:00
Wind Visibility
90° at 12 knots 10,000+ meters
Clouds
  • No significant clouds
Conditions
Becoming Jan-17 @ 08:00 - Jan-17 @ 15:00
Wind Visibility
270° at 10 knots 10,000+ meters
Clouds
  • No significant clouds
Conditions